Time;durP1;ratioP1;P1;durP2;ratioP2;P2;SDS_P1;SDS_P2;PMS_P1;PMS_P2;Temp;Humidity;BMP_temperature;BMP_pressure;BME280_temperature;BME280_humidity;BME280_pressure;Samples;Min_cycle;Max_cycle;Signal;HPM_P1;HPM_P2
2022/11/26 00:00:38;;;;;;;20.42;4.65;;;;;;;;;;5024538;28;20056;-85
2022/11/26 00:03:03;;;;;;;20.23;5.07;;;;;;;;;;5023403;28;20478;-85
2022/11/26 00:05:30;;;;;;;15.55;4.80;;;;;;;;;;5025682;28;20071;-85
2022/11/26 00:07:58;;;;;;;15.48;4.50;;;;;;;;;;5026595;28;20078;-85
2022/11/26 00:10:33;;;;;;;21.83;5.82;;;;;;;;;;5028101;28;20030;-85
2022/11/26 00:12:59;;;;;;;14.25;5.53;;;;;;;;;;5016639;28;20029;-86
2022/11/26 00:15:27;;;;;;;21.30;4.60;;;;;;;;;;5025694;28;20044;-85
2022/11/26 00:17:53;;;;;;;22.58;5.45;;;;;;;;;;5027450;28;20041;-85
2022/11/26 00:20:22;;;;;;;12.25;4.78;;;;;;;;;;5024182;28;20030;-85
2022/11/26 00:22:53;;;;;;;9.25;3.60;;;;;;;;;;5020308;28;20048;-85
2022/11/26 00:25:24;;;;;;;9.43;3.58;;;;;;;;;;5025352;28;20053;-86
2022/11/26 00:27:52;;;;;;;8.32;3.33;;;;;;;;;;5012862;28;20041;-85
2022/11/26 00:30:26;;;;;;;7.63;3.30;;;;;;;;;;5021884;28;20038;-85
2022/11/26 00:32:53;;;;;;;8.00;3.35;;;;;;;;;;5017987;28;20041;-84
2022/11/26 00:35:20;;;;;;;16.60;4.25;;;;;;;;;;5026993;28;20071;-84
2022/11/26 00:37:52;;;;;;;17.92;4.70;;;;;;;;;;5022020;28;20045;-85
2022/11/26 00:40:26;;;;;;;10.32;4.82;;;;;;;;;;5018313;28;20048;-85
2022/11/26 00:42:52;;;;;;;9.95;4.40;;;;;;;;;;5014205;28;20032;-85
2022/11/26 00:45:23;;;;;;;7.57;3.25;;;;;;;;;;5024416;28;20033;-85
2022/11/26 00:47:50;;;;;;;8.68;3.30;;;;;;;;;;5024303;28;20102;-85
2022/11/26 00:50:18;;;;;;;4.60;2.70;;;;;;;;;;5026706;28;20030;-85
2022/11/26 00:52:46;;;;;;;8.55;4.05;;;;;;;;;;5026575;28;20025;-85
2022/11/26 00:55:29;;;;;;;11.57;4.00;;;;;;;;;;5026007;28;20033;-85
2022/11/26 00:57:55;;;;;;;8.25;3.55;;;;;;;;;;5023969;28;20087;-85
2022/11/26 01:00:27;;;;;;;11.40;3.95;;;;;;;;;;5024598;28;20117;-85
2022/11/26 01:02:54;;;;;;;6.60;3.70;;;;;;;;;;5024095;28;20064;-85
2022/11/26 01:05:32;;;;;;;11.77;4.63;;;;;;;;;;5019690;28;20041;-85
2022/11/26 01:08:13;;;;;;;9.18;4.38;;;;;;;;;;5032631;28;20112;-85
2022/11/26 01:10:38;;;;;;;11.43;4.57;;;;;;;;;;5025692;28;20112;-84
2022/11/26 01:13:05;;;;;;;14.88;5.47;;;;;;;;;;5024789;28;20467;-85
2022/11/26 01:15:30;;;;;;;14.43;6.00;;;;;;;;;;5026294;28;20046;-85
2022/11/26 01:17:56;;;;;;;22.05;5.30;;;;;;;;;;5025072;28;20079;-84
2022/11/26 01:20:21;;;;;;;14.50;4.35;;;;;;;;;;5024331;28;20041;-85
2022/11/26 01:22:49;;;;;;;12.57;4.65;;;;;;;;;;5027122;28;20446;-84
2022/11/26 01:25:14;;;;;;;9.10;4.55;;;;;;;;;;5024319;28;20060;-85
2022/11/26 01:27:39;;;;;;;13.10;5.03;;;;;;;;;;5026071;28;20038;-85
2022/11/26 01:30:15;;;;;;;9.73;4.25;;;;;;;;;;5024600;28;20037;-84
2022/11/26 01:32:41;;;;;;;11.75;4.85;;;;;;;;;;5024829;28;20037;-84
2022/11/26 01:35:07;;;;;;;11.25;4.63;;;;;;;;;;5024351;28;20033;-83
2022/11/26 01:37:32;;;;;;;9.90;4.65;;;;;;;;;;5024248;28;20454;-84
2022/11/26 01:39:57;;;;;;;12.90;4.65;;;;;;;;;;5023967;28;20037;-85
2022/11/26 01:42:45;;;;;;;14.27;5.00;;;;;;;;;;5025017;28;20042;-85
2022/11/26 01:45:21;;;;;;;9.80;4.55;;;;;;;;;;5022354;28;20565;-81
2022/11/26 01:47:49;;;;;;;9.55;4.60;;;;;;;;;;5020976;28;20037;-84
2022/11/26 01:50:27;;;;;;;11.75;4.63;;;;;;;;;;5023026;28;20843;-82
2022/11/26 01:53:02;;;;;;;17.58;4.55;;;;;;;;;;5016531;28;20055;-85
2022/11/26 01:55:35;;;;;;;15.20;4.93;;;;;;;;;;5037056;28;20783;-85
2022/11/26 01:58:02;;;;;;;6.88;3.67;;;;;;;;;;5025393;28;20071;-85
2022/11/26 02:00:28;;;;;;;9.38;4.00;;;;;;;;;;5024154;28;20039;-85
2022/11/26 02:02:53;;;;;;;17.88;4.47;;;;;;;;;;5025989;28;20041;-84
2022/11/26 02:05:27;;;;;;;11.57;5.05;;;;;;;;;;5022946;28;20041;-84
2022/11/26 02:07:52;;;;;;;;;;;;;;;;;;5026273;28;20027;-84
2022/11/26 02:10:18;;;;;;;15.10;4.38;;;;;;;;;;5024640;28;19909;-85
2022/11/26 02:12:44;;;;;;;8.68;3.33;;;;;;;;;;5023435;28;20140;-84
2022/11/26 02:15:11;;;;;;;6.88;2.90;;;;;;;;;;5024145;28;20065;-84
2022/11/26 02:17:42;;;;;;;8.20;3.00;;;;;;;;;;5023621;28;20033;-85
2022/11/26 02:20:35;;;;;;;13.15;4.28;;;;;;;;;;5021900;28;20108;-85
2022/11/26 02:23:31;;;;;;;11.15;3.80;;;;;;;;;;5021623;28;20494;-84
2022/11/26 02:26:21;;;;;;;8.20;3.63;;;;;;;;;;5025157;28;20027;-84
2022/11/26 02:29:12;;;;;;;20.17;3.95;;;;;;;;;;5024206;28;20022;-85
2022/11/26 02:31:53;;;;;;;6.30;2.95;;;;;;;;;;5006748;28;20084;-85
2022/11/26 02:34:44;;;;;;;14.50;4.10;;;;;;;;;;5020379;28;20065;-84
2022/11/26 02:37:22;;;;;;;16.67;3.92;;;;;;;;;;5025547;28;20041;-85
2022/11/26 02:39:47;;;;;;;6.50;3.05;;;;;;;;;;5012400;28;20125;-85
2022/11/26 02:42:27;;;;;;;9.75;3.40;;;;;;;;;;5016394;28;20045;-84
2022/11/26 02:44:55;;;;;;;9.95;3.60;;;;;;;;;;5021922;28;20641;-85
2022/11/26 02:47:23;;;;;;;22.38;4.75;;;;;;;;;;5012057;28;20052;-85
2022/11/26 02:49:50;;;;;;;11.68;4.30;;;;;;;;;;5017283;28;20022;-85
2022/11/26 02:52:17;;;;;;;11.32;3.85;;;;;;;;;;5021128;28;20045;-84
2022/11/26 02:54:43;;;;;;;7.65;3.40;;;;;;;;;;5024287;28;20054;-85
2022/11/26 02:57:12;;;;;;;14.88;4.03;;;;;;;;;;5022824;28;20087;-85
2022/11/26 02:59:41;;;;;;;7.30;3.17;;;;;;;;;;5015724;28;20944;-83
2022/11/26 03:02:13;;;;;;;10.52;3.80;;;;;;;;;;5026353;28;20112;-85
2022/11/26 03:04:42;;;;;;;9.32;3.50;;;;;;;;;;5023578;28;20067;-85
2022/11/26 03:07:09;;;;;;;14.60;4.05;;;;;;;;;;5028217;28;20042;-84
2022/11/26 03:09:40;;;;;;;10.57;3.83;;;;;;;;;;5028875;28;20033;-85
2022/11/26 03:12:05;;;;;;;19.95;3.50;;;;;;;;;;5028460;28;20034;-83
2022/11/26 03:14:31;;;;;;;11.32;2.95;;;;;;;;;;5030630;28;20033;-84
2022/11/26 03:16:56;;;;;;;9.40;3.33;;;;;;;;;;5028392;28;20052;-84
2022/11/26 03:19:21;;;;;;;11.23;3.25;;;;;;;;;;5029270;28;20051;-84
2022/11/26 03:21:46;;;;;;;9.55;3.20;;;;;;;;;;5030119;28;20521;-85
2022/11/26 03:24:12;;;;;;;13.30;3.45;;;;;;;;;;5021644;28;20045;-85
2022/11/26 03:26:37;;;;;;;12.00;3.70;;;;;;;;;;5021378;28;20060;-85
2022/11/26 03:29:03;;;;;;;14.10;3.28;;;;;;;;;;5030388;28;20430;-84
2022/11/26 03:31:28;;;;;;;5.15;2.38;;;;;;;;;;5023746;28;20014;-85
2022/11/26 03:33:54;;;;;;;16.73;3.33;;;;;;;;;;5027395;28;20572;-85
2022/11/26 03:36:19;;;;;;;7.13;3.22;;;;;;;;;;5030498;28;20091;-85
2022/11/26 03:38:44;;;;;;;6.00;2.92;;;;;;;;;;5028684;28;20103;-85
2022/11/26 03:41:10;;;;;;;7.55;2.60;;;;;;;;;;5026968;28;20060;-85
2022/11/26 03:43:35;;;;;;;6.32;2.70;;;;;;;;;;5028213;28;20406;-83
2022/11/26 03:46:00;;;;;;;6.15;2.85;;;;;;;;;;5027985;28;20042;-85
2022/11/26 03:48:26;;;;;;;14.05;3.70;;;;;;;;;;5028617;28;20120;-85
2022/11/26 03:50:51;;;;;;;8.82;3.65;;;;;;;;;;5029368;28;20045;-85
2022/11/26 03:53:16;;;;;;;14.38;3.58;;;;;;;;;;5029444;28;20175;-85
2022/11/26 03:55:41;;;;;;;13.68;4.20;;;;;;;;;;5028368;28;20034;-84
2022/11/26 03:58:07;;;;;;;15.50;4.45;;;;;;;;;;5027444;28;20038;-85
2022/11/26 04:00:35;;;;;;;19.63;3.95;;;;;;;;;;5028639;28;20067;-81
2022/11/26 04:03:00;;;;;;;6.85;3.20;;;;;;;;;;5024187;28;20103;-85
2022/11/26 04:05:28;;;;;;;10.60;3.30;;;;;;;;;;5025493;28;20514;-84
2022/11/26 04:07:54;;;;;;;6.38;2.75;;;;;;;;;;5024206;28;20060;-85
2022/11/26 04:10:19;;;;;;;9.18;3.35;;;;;;;;;;5030022;28;20053;-84
2022/11/26 04:12:44;;;;;;;8.88;2.92;;;;;;;;;;5029362;28;20025;-84
2022/11/26 04:15:10;;;;;;;7.65;2.88;;;;;;;;;;5021356;28;20056;-85
2022/11/26 04:17:35;;;;;;;6.28;3.38;;;;;;;;;;5021230;28;20229;-84
2022/11/26 04:20:00;;;;;;;9.02;3.17;;;;;;;;;;5024345;28;20055;-85
2022/11/26 04:22:26;;;;;;;14.98;3.67;;;;;;;;;;5028032;28;20032;-85
2022/11/26 04:24:51;;;;;;;9.30;3.63;;;;;;;;;;5043833;28;20088;-85
2022/11/26 04:27:16;;;;;;;10.80;3.30;;;;;;;;;;5041600;28;20041;-85
2022/11/26 04:29:41;;;;;;;12.40;4.07;;;;;;;;;;5017089;28;20217;-84
2022/11/26 04:32:07;;;;;;;11.80;4.20;;;;;;;;;;5027569;28;20033;-85
2022/11/26 04:34:32;;;;;;;10.10;2.92;;;;;;;;;;5028486;28;20108;-85
2022/11/26 04:36:57;;;;;;;8.93;3.03;;;;;;;;;;5026267;28;20033;-85
2022/11/26 04:39:23;;;;;;;11.70;3.60;;;;;;;;;;5022406;28;20718;-85
2022/11/26 04:41:48;;;;;;;19.63;4.90;;;;;;;;;;5028667;28;20033;-85
2022/11/26 04:44:14;;;;;;;11.60;4.05;;;;;;;;;;5015319;28;20057;-84
2022/11/26 04:46:39;;;;;;;12.93;3.97;;;;;;;;;;5029337;28;20106;-85
2022/11/26 04:49:04;;;;;;;14.65;4.47;;;;;;;;;;5028217;28;20049;-85
2022/11/26 04:51:30;;;;;;;10.60;3.97;;;;;;;;;;5023345;28;20041;-85
2022/11/26 04:53:55;;;;;;;12.65;4.03;;;;;;;;;;5029244;28;20029;-85
2022/11/26 04:56:20;;;;;;;8.90;3.65;;;;;;;;;;5027624;28;20053;-85
2022/11/26 04:58:46;;;;;;;12.15;3.85;;;;;;;;;;5029404;28;20037;-85
2022/11/26 05:01:11;;;;;;;13.27;3.83;;;;;;;;;;5026673;28;20033;-84
2022/11/26 05:03:36;;;;;;;8.20;3.13;;;;;;;;;;5023086;28;20034;-85
2022/11/26 05:06:02;;;;;;;12.57;4.00;;;;;;;;;;5025807;28;20025;-85
2022/11/26 05:08:27;;;;;;;14.88;4.07;;;;;;;;;;5026622;28;20037;-85
2022/11/26 05:10:54;;;;;;;11.10;3.97;;;;;;;;;;5028830;28;20596;-84
2022/11/26 05:13:20;;;;;;;6.35;3.13;;;;;;;;;;5020472;28;20469;-85
2022/11/26 05:15:48;;;;;;;8.80;3.53;;;;;;;;;;5023495;28;20576;-81
2022/11/26 05:18:13;;;;;;;12.25;3.22;;;;;;;;;;5026229;28;20046;-85
2022/11/26 05:20:39;;;;;;;14.73;4.13;;;;;;;;;;5026782;28;20084;-85
2022/11/26 05:23:04;;;;;;;11.07;4.10;;;;;;;;;;5026474;28;20100;-85
2022/11/26 05:25:29;;;;;;;13.88;4.10;;;;;;;;;;5026724;28;20026;-85
2022/11/26 05:27:55;;;;;;;8.88;3.47;;;;;;;;;;5024879;28;20045;-85
2022/11/26 05:30:20;;;;;;;11.77;3.88;;;;;;;;;;5021004;28;20061;-85
2022/11/26 05:32:46;;;;;;;12.85;3.95;;;;;;;;;;5020246;28;20029;-85
2022/11/26 05:35:11;;;;;;;17.13;4.53;;;;;;;;;;5026905;28;20061;-85
2022/11/26 05:37:36;;;;;;;13.82;3.85;;;;;;;;;;5022446;28;20078;-85
2022/11/26 05:40:03;;;;;;;11.55;3.97;;;;;;;;;;5020509;28;20266;-85
2022/11/26 05:42:28;;;;;;;14.60;4.10;;;;;;;;;;5028198;28;20059;-85
2022/11/26 05:44:53;;;;;;;10.30;3.55;;;;;;;;;;5012627;28;20030;-85
2022/11/26 05:47:19;;;;;;;11.93;3.97;;;;;;;;;;5017968;28;20041;-86
2022/11/26 05:49:44;;;;;;;9.65;3.78;;;;;;;;;;5021158;28;20101;-85
2022/11/26 05:52:09;;;;;;;12.82;3.85;;;;;;;;;;5028630;28;20030;-85
2022/11/26 05:54:38;;;;;;;9.75;3.33;;;;;;;;;;5023855;28;20037;-84
2022/11/26 05:57:03;;;;;;;12.30;3.67;;;;;;;;;;5013755;28;20040;-85
2022/11/26 05:59:31;;;;;;;15.75;4.07;;;;;;;;;;5039007;28;20033;-84
2022/11/26 06:01:56;;;;;;;9.93;4.10;;;;;;;;;;5026247;28;20025;-85
2022/11/26 06:04:21;;;;;;;11.75;3.42;;;;;;;;;;5024727;28;20479;-84
2022/11/26 06:06:47;;;;;;;8.60;3.58;;;;;;;;;;5019915;28;20040;-85
2022/11/26 06:09:12;;;;;;;11.02;3.63;;;;;;;;;;5024656;28;20037;-85
2022/11/26 06:11:38;;;;;;;6.32;3.25;;;;;;;;;;5024858;28;20029;-85
2022/11/26 06:14:03;;;;;;;13.82;3.72;;;;;;;;;;5026102;28;20021;-85
2022/11/26 06:16:29;;;;;;;7.57;3.35;;;;;;;;;;5026600;28;20052;-84
2022/11/26 06:18:54;;;;;;;7.57;3.97;;;;;;;;;;5026011;28;20064;-85
2022/11/26 06:21:20;;;;;;;10.32;3.45;;;;;;;;;;5020077;28;20064;-85
2022/11/26 06:23:45;;;;;;;16.25;3.85;;;;;;;;;;5024190;28;21199;-86
2022/11/26 06:26:12;;;;;;;14.07;3.63;;;;;;;;;;5026382;28;20537;-86
2022/11/26 06:28:38;;;;;;;14.95;4.10;;;;;;;;;;5025494;28;20133;-86
2022/11/26 06:31:03;;;;;;;12.52;4.47;;;;;;;;;;5020197;28;20056;-86
2022/11/26 06:33:29;;;;;;;8.82;4.10;;;;;;;;;;5025578;28;20628;-85
2022/11/26 06:35:59;;;;;;;11.52;4.28;;;;;;;;;;5023344;28;20529;-86
2022/11/26 06:38:25;;;;;;;11.70;3.60;;;;;;;;;;5030121;28;20048;-86
2022/11/26 06:41:05;;;;;;;14.40;4.82;;;;;;;;;;5027427;28;20033;-86
2022/11/26 06:43:31;;;;;;;15.02;4.57;;;;;;;;;;5015294;28;20486;-86
2022/11/26 06:46:02;;;;;;;14.93;4.57;;;;;;;;;;5024805;28;20051;-85
2022/11/26 06:48:27;;;;;;;19.33;4.43;;;;;;;;;;5029753;28;20506;-87
2022/11/26 06:50:53;;;;;;;16.00;4.10;;;;;;;;;;5029762;28;20049;-86
2022/11/26 06:53:18;;;;;;;12.40;4.53;;;;;;;;;;5031358;28;20034;-86
2022/11/26 06:55:49;;;;;;;19.67;4.82;;;;;;;;;;5025944;28;20580;-85
2022/11/26 06:58:15;;;;;;;11.20;4.72;;;;;;;;;;5025052;28;20037;-85
2022/11/26 07:00:43;;;;;;;15.20;5.38;;;;;;;;;;5031604;28;20044;-86
2022/11/26 07:03:09;;;;;;;18.77;4.65;;;;;;;;;;5027843;28;20465;-86
2022/11/26 07:05:35;;;;;;;11.95;4.80;;;;;;;;;;5028031;28;21331;-86
2022/11/26 07:08:00;;;;;;;20.13;5.30;;;;;;;;;;5030419;28;20068;-86
2022/11/26 07:10:25;;;;;;;13.60;4.90;;;;;;;;;;5031482;28;20485;-85
2022/11/26 07:12:51;;;;;;;15.73;4.03;;;;;;;;;;5024290;28;20042;-85
2022/11/26 07:15:16;;;;;;;5.97;3.35;;;;;;;;;;5029810;28;20045;-86
2022/11/26 07:17:44;;;;;;;12.60;4.75;;;;;;;;;;5028639;28;20037;-86
2022/11/26 07:20:10;;;;;;;13.73;4.25;;;;;;;;;;5029685;28;20445;-86
2022/11/26 07:22:35;;;;;;;15.50;4.70;;;;;;;;;;5030250;28;20021;-86
2022/11/26 07:25:00;;;;;;;10.95;4.38;;;;;;;;;;5030497;28;20064;-85
2022/11/26 07:27:26;;;;;;;17.50;5.53;;;;;;;;;;5028296;28;20041;-86
2022/11/26 07:29:51;;;;;;;10.45;4.20;;;;;;;;;;5029172;28;20045;-87
2022/11/26 07:32:17;;;;;;;13.52;4.68;;;;;;;;;;5027619;28;20037;-86
2022/11/26 07:34:42;;;;;;;14.45;4.70;;;;;;;;;;5030542;28;20056;-86
2022/11/26 07:37:08;;;;;;;13.32;4.57;;;;;;;;;;5028152;28;20139;-86
2022/11/26 07:39:33;;;;;;;25.77;5.18;;;;;;;;;;5030842;28;20103;-86
2022/11/26 07:41:59;;;;;;;10.73;4.55;;;;;;;;;;5027768;28;20481;-86
2022/11/26 07:44:27;;;;;;;16.33;4.28;;;;;;;;;;5027184;28;20041;-86
2022/11/26 07:46:52;;;;;;;21.00;4.70;;;;;;;;;;5027132;28;20502;-86
2022/11/26 07:49:17;;;;;;;11.23;4.40;;;;;;;;;;5028172;28;20080;-86
2022/11/26 07:51:43;;;;;;;13.57;4.13;;;;;;;;;;5023985;28;20049;-86
2022/11/26 07:54:08;;;;;;;10.32;3.97;;;;;;;;;;5021149;28;20453;-87
2022/11/26 07:56:34;;;;;;;12.80;3.42;;;;;;;;;;5034197;28;20044;-87
2022/11/26 07:59:01;;;;;;;8.70;3.83;;;;;;;;;;5025646;28;20080;-87
2022/11/26 08:01:28;;;;;;;11.90;4.18;;;;;;;;;;5029244;28;20017;-87
2022/11/26 08:03:54;;;;;;;12.80;4.88;;;;;;;;;;5022460;28;20036;-81
2022/11/26 08:06:22;;;;;;;15.10;4.88;;;;;;;;;;5021819;28;20500;-87
2022/11/26 08:08:48;;;;;;;12.73;4.82;;;;;;;;;;5027986;28;20034;-86
2022/11/26 08:11:15;;;;;;;5.35;2.78;;;;;;;;;;5029025;28;20959;-86
2022/11/26 08:13:44;;;;;;;9.85;3.42;;;;;;;;;;5020297;28;20025;-81
2022/11/26 08:16:11;;;;;;;8.90;3.70;;;;;;;;;;5021267;28;20065;-83
2022/11/26 08:18:36;;;;;;;11.63;3.97;;;;;;;;;;5022960;28;20042;-87
2022/11/26 08:21:02;;;;;;;13.25;3.85;;;;;;;;;;5017711;28;20072;-86
2022/11/26 08:23:29;;;;;;;14.43;3.80;;;;;;;;;;5026208;28;20091;-87
2022/11/26 08:25:54;;;;;;;6.00;2.85;;;;;;;;;;5026996;28;20107;-86
2022/11/26 08:28:19;;;;;;;4.22;2.50;;;;;;;;;;5025139;28;20482;-87
2022/11/26 08:30:45;;;;;;;6.57;2.35;;;;;;;;;;5021105;28;20038;-87
2022/11/26 08:33:10;;;;;;;6.10;2.88;;;;;;;;;;5015146;28;20128;-87
2022/11/26 08:35:36;;;;;;;6.55;3.33;;;;;;;;;;5017694;28;20128;-86
2022/11/26 08:38:02;;;;;;;8.20;2.90;;;;;;;;;;5011831;28;20029;-87
2022/11/26 08:40:28;;;;;;;9.60;3.67;;;;;;;;;;5025885;28;20521;-86
2022/11/26 08:42:53;;;;;;;11.13;4.00;;;;;;;;;;5018754;28;20030;-87
2022/11/26 08:45:18;;;;;;;10.57;4.47;;;;;;;;;;5024324;28;20045;-87
2022/11/26 08:47:44;;;;;;;9.48;3.95;;;;;;;;;;5041271;28;20063;-87
2022/11/26 08:50:10;;;;;;;9.02;3.75;;;;;;;;;;5035031;28;20034;-83
2022/11/26 08:52:35;;;;;;;8.63;3.63;;;;;;;;;;5023364;28;20735;-85
2022/11/26 08:55:01;;;;;;;14.40;4.68;;;;;;;;;;5023737;28;20025;-80
2022/11/26 08:57:26;;;;;;;5.28;2.45;;;;;;;;;;5017307;28;20042;-86
2022/11/26 08:59:53;;;;;;;6.28;2.25;;;;;;;;;;5022188;28;20037;-83
2022/11/26 09:02:19;;;;;;;7.00;3.55;;;;;;;;;;5028742;28;20041;-87
2022/11/26 09:04:44;;;;;;;3.28;1.50;;;;;;;;;;4999088;28;20071;-88
2022/11/26 09:07:10;;;;;;;12.82;4.90;;;;;;;;;;5008564;28;20391;-88
2022/11/26 09:09:35;;;;;;;9.68;4.03;;;;;;;;;;5015757;28;20036;-88
2022/11/26 09:12:01;;;;;;;12.50;4.43;;;;;;;;;;5001167;28;20466;-86
2022/11/26 09:14:29;;;;;;;10.43;4.63;;;;;;;;;;5024451;28;20053;-87
2022/11/26 09:16:56;;;;;;;10.40;4.30;;;;;;;;;;5012375;28;20031;-88
2022/11/26 09:19:22;;;;;;;9.63;4.25;;;;;;;;;;5018988;28;20084;-87
2022/11/26 09:21:47;;;;;;;8.77;2.88;;;;;;;;;;5023920;28;20136;-88
2022/11/26 09:24:16;;;;;;;15.82;4.28;;;;;;;;;;5023458;28;21103;-88
2022/11/26 09:26:44;;;;;;;8.23;3.75;;;;;;;;;;5026888;28;20040;-89
2022/11/26 09:29:17;;;;;;;12.07;4.72;;;;;;;;;;5025955;28;20052;-88
2022/11/26 09:31:44;;;;;;;8.07;4.32;;;;;;;;;;5012343;28;20025;-88
2022/11/26 09:34:09;;;;;;;9.32;2.90;;;;;;;;;;5019077;28;20041;-87
2022/11/26 09:36:35;;;;;;;17.50;4.70;;;;;;;;;;5022427;28;20043;-88
2022/11/26 09:39:00;;;;;;;12.65;4.13;;;;;;;;;;5011227;28;20072;-88
2022/11/26 09:42:06;;;;;;;14.35;4.53;;;;;;;;;;5021609;28;20056;-87
2022/11/26 09:44:34;;;;;;;12.55;4.13;;;;;;;;;;5012931;28;20061;-87
2022/11/26 09:47:12;;;;;;;10.65;4.22;;;;;;;;;;5035338;28;20041;-88
2022/11/26 09:49:56;;;;;;;9.65;4.32;;;;;;;;;;5025615;28;20033;-88
2022/11/26 09:52:28;;;;;;;11.35;4.88;;;;;;;;;;5022316;28;20041;-87
2022/11/26 09:55:07;;;;;;;12.98;4.35;;;;;;;;;;5017693;28;20025;-87
2022/11/26 09:57:57;;;;;;;13.85;4.63;;;;;;;;;;5002390;28;20037;-87
2022/11/26 10:00:31;;;;;;;9.90;4.00;;;;;;;;;;5029260;28;20450;-86
2022/11/26 10:02:57;;;;;;;10.95;4.55;;;;;;;;;;5018211;28;20117;-87
2022/11/26 10:05:38;;;;;;;8.88;4.03;;;;;;;;;;5016961;28;20507;-87
2022/11/26 10:08:31;;;;;;;10.90;4.90;;;;;;;;;;5021063;28;20026;-85
2022/11/26 10:11:14;;;;;;;12.57;4.30;;;;;;;;;;5022991;28;20064;-86
2022/11/26 10:14:19;;;;;;;9.43;4.35;;;;;;;;;;5019194;28;20369;-88
2022/11/26 10:17:18;;;;;;;13.32;4.78;;;;;;;;;;5016298;28;20057;-86
2022/11/26 10:20:07;;;;;;;6.55;1.75;;;;;;;;;;5024380;28;20021;-85
2022/11/26 10:22:45;;;;;;;10.85;3.22;;;;;;;;;;5018917;28;20053;-86
2022/11/26 10:25:19;;;;;;;9.63;3.22;;;;;;;;;;5024226;28;20038;-81
2022/11/26 10:27:47;;;;;;;5.93;3.65;;;;;;;;;;5023509;28;20137;-87
2022/11/26 10:30:23;;;;;;;11.93;4.00;;;;;;;;;;5025200;28;20044;-87
2022/11/26 10:32:50;;;;;;;8.32;2.92;;;;;;;;;;5030484;28;20033;-88
2022/11/26 10:35:24;;;;;;;10.18;3.53;;;;;;;;;;5024909;28;20038;-88
2022/11/26 10:37:50;;;;;;;13.25;4.20;;;;;;;;;;5011993;28;20039;-87
2022/11/26 10:40:27;;;;;;;16.08;3.78;;;;;;;;;;5025494;28;20052;-88
2022/11/26 10:43:01;;;;;;;15.85;3.47;;;;;;;;;;5023796;28;20679;-88
2022/11/26 10:45:41;;;;;;;13.25;4.07;;;;;;;;;;5016910;28;20034;-87
2022/11/26 10:48:15;;;;;;;13.23;3.17;;;;;;;;;;5021258;28;20415;-86
2022/11/26 10:50:42;;;;;;;9.45;3.78;;;;;;;;;;5020858;28;20052;-87
2022/11/26 10:53:19;;;;;;;10.20;3.22;;;;;;;;;;5018542;28;20040;-87
2022/11/26 10:55:44;;;;;;;7.80;3.40;;;;;;;;;;5037903;28;20030;-88
2022/11/26 10:58:22;;;;;;;14.07;3.28;;;;;;;;;;5026925;28;20392;-85
2022/11/26 11:00:47;;;;;;;10.68;2.28;;;;;;;;;;5022164;28;20116;-87
2022/11/26 11:03:16;;;;;;;11.93;2.63;;;;;;;;;;5022939;28;20342;-88
2022/11/26 11:05:43;;;;;;;11.95;3.35;;;;;;;;;;5018566;28;20067;-87
2022/11/26 11:08:31;;;;;;;12.25;3.33;;;;;;;;;;5015990;28;25584;-87
2022/11/26 11:10:59;;;;;;;12.88;3.10;;;;;;;;;;5018931;28;20129;-88
2022/11/26 11:13:40;;;;;;;3.30;1.92;;;;;;;;;;5026951;28;20060;-88
2022/11/26 11:16:07;;;;;;;25.20;3.38;;;;;;;;;;5016492;28;20044;-87
2022/11/26 11:18:34;;;;;;;9.15;2.80;;;;;;;;;;5022931;28;20570;-86
2022/11/26 11:21:04;;;;;;;12.18;3.38;;;;;;;;;;5024225;28;20060;-87
2022/11/26 11:23:33;;;;;;;11.15;3.63;;;;;;;;;;5026184;28;20040;-86
2022/11/26 11:26:00;;;;;;;9.15;2.17;;;;;;;;;;5029761;28;20498;-87
2022/11/26 11:28:29;;;;;;;6.97;2.97;;;;;;;;;;5023322;28;20576;-88
2022/11/26 11:31:20;;;;;;;9.82;2.78;;;;;;;;;;5024865;28;20042;-88
2022/11/26 11:33:47;;;;;;;13.68;3.22;;;;;;;;;;5034567;28;20140;-82
2022/11/26 11:36:12;;;;;;;12.40;3.05;;;;;;;;;;5020958;28;20479;-87
2022/11/26 11:38:56;;;;;;;12.40;3.40;;;;;;;;;;5029762;28;20037;-87
2022/11/26 11:41:45;;;;;;;11.73;3.10;;;;;;;;;;5026226;28;20461;-86
2022/11/26 11:44:22;;;;;;;13.05;3.85;;;;;;;;;;5023427;28;20542;-87
2022/11/26 11:47:06;;;;;;;9.98;3.67;;;;;;;;;;5021367;28;20880;-86
2022/11/26 11:49:47;;;;;;;8.63;3.33;;;;;;;;;;5017010;28;20156;-87
2022/11/26 11:52:25;;;;;;;14.63;3.25;;;;;;;;;;5023292;28;20042;-88
2022/11/26 11:55:02;;;;;;;10.95;3.45;;;;;;;;;;5030263;28;20041;-88
2022/11/26 11:57:53;;;;;;;6.38;2.63;;;;;;;;;;5025978;28;20124;-89
2022/11/26 12:00:23;;;;;;;12.13;3.03;;;;;;;;;;5008110;28;20882;-90
2022/11/26 12:03:16;;;;;;;7.78;2.78;;;;;;;;;;5023499;28;20802;-89
2022/11/26 12:05:48;;;;;;;13.55;3.05;;;;;;;;;;5012261;28;20045;-89
2022/11/26 12:08:25;;;;;;;15.30;3.55;;;;;;;;;;5028161;28;20041;-89
2022/11/26 12:11:04;;;;;;;15.98;2.20;;;;;;;;;;5020480;28;20025;-89
2022/11/26 12:13:35;;;;;;;16.05;3.10;;;;;;;;;;5042144;28;20658;-88
2022/11/26 12:16:08;;;;;;;8.55;2.50;;;;;;;;;;5014781;28;20037;-89
2022/11/26 12:18:59;;;;;;;10.60;3.25;;;;;;;;;;5024693;28;20561;-88
2022/11/26 12:21:39;;;;;;;11.48;4.38;;;;;;;;;;5002325;28;20041;-89
2022/11/26 12:24:25;;;;;;;12.25;4.22;;;;;;;;;;5029589;28;20123;-88
2022/11/26 12:27:33;;;;;;;26.65;6.63;;;;;;;;;;5025406;28;20438;-88
2022/11/26 12:30:01;;;;;;;24.83;6.15;;;;;;;;;;5018326;28;20089;-88
2022/11/26 12:32:32;;;;;;;20.48;6.78;;;;;;;;;;5018560;28;20037;-88
2022/11/26 12:35:09;;;;;;;22.50;8.27;;;;;;;;;;5005102;28;20021;-88
2022/11/26 12:37:41;;;;;;;19.38;6.20;;;;;;;;;;5022044;28;20038;-88
2022/11/26 12:40:15;;;;;;;12.27;4.75;;;;;;;;;;5017081;28;20035;-88
2022/11/26 12:42:55;;;;;;;9.55;3.33;;;;;;;;;;5019019;28;20106;-88
2022/11/26 12:45:52;;;;;;;7.55;3.13;;;;;;;;;;5024076;28;20033;-89
2022/11/26 12:48:42;;;;;;;6.95;1.73;;;;;;;;;;5034363;28;20053;-88
2022/11/26 12:51:52;;;;;;;12.27;3.17;;;;;;;;;;5036775;28;20132;-87
2022/11/26 12:54:27;;;;;;;12.07;2.95;;;;;;;;;;5016038;28;20042;-89
2022/11/26 12:57:16;;;;;;;16.30;3.50;;;;;;;;;;5038640;28;20116;-89
2022/11/26 12:59:50;;;;;;;9.05;2.78;;;;;;;;;;5021791;28;20407;-90
2022/11/26 13:02:24;;;;;;;17.00;3.25;;;;;;;;;;5025733;28;20041;-89
2022/11/26 13:04:51;;;;;;;11.48;3.55;;;;;;;;;;5010348;28;20589;-89
2022/11/26 13:07:29;;;;;;;5.32;2.40;;;;;;;;;;5024950;28;21006;-89
2022/11/26 13:10:18;;;;;;;13.60;3.05;;;;;;;;;;5026417;28;20041;-89
2022/11/26 13:13:01;;;;;;;8.50;2.35;;;;;;;;;;5021634;28;20049;-89
2022/11/26 13:15:42;;;;;;;10.53;3.03;;;;;;;;;;5020792;28;20038;-89
2022/11/26 13:18:17;;;;;;;11.27;2.97;;;;;;;;;;5012072;28;20598;-89
2022/11/26 13:21:00;;;;;;;10.32;2.90;;;;;;;;;;5019042;28;20898;-89
2022/11/26 13:23:54;;;;;;;11.48;3.30;;;;;;;;;;5012491;28;20071;-89
2022/11/26 13:26:40;;;;;;;4.63;2.17;;;;;;;;;;5021667;28;20041;-89
2022/11/26 13:29:37;;;;;;;9.90;3.05;;;;;;;;;;5034710;28;20029;-88
2022/11/26 13:32:24;;;;;;;2.75;1.77;;;;;;;;;;5027367;28;20073;-88
2022/11/26 13:35:14;;;;;;;9.18;3.60;;;;;;;;;;5022041;28;20029;-88
2022/11/26 13:37:54;;;;;;;11.30;3.10;;;;;;;;;;5031322;28;20025;-87
2022/11/26 13:40:25;;;;;;;11.15;3.13;;;;;;;;;;5025403;28;20041;-84
2022/11/26 13:43:15;;;;;;;9.40;3.50;;;;;;;;;;5023577;28;20033;-88
2022/11/26 13:45:59;;;;;;;6.78;2.47;;;;;;;;;;5021364;28;20034;-88
2022/11/26 13:48:35;;;;;;;10.27;2.80;;;;;;;;;;5037334;28;20503;-88
2022/11/26 13:51:18;;;;;;;12.60;3.60;;;;;;;;;;5027801;28;20047;-87
2022/11/26 13:53:48;;;;;;;9.77;3.08;;;;;;;;;;5017478;28;20041;-88
2022/11/26 13:56:21;;;;;;;10.38;2.50;;;;;;;;;;5019005;28;20506;-87
2022/11/26 13:58:52;;;;;;;3.45;1.90;;;;;;;;;;5026703;28;20033;-88
2022/11/26 14:01:35;;;;;;;5.90;2.90;;;;;;;;;;5025697;28;20437;-88
2022/11/26 14:04:02;;;;;;;7.00;2.40;;;;;;;;;;5017662;28;20037;-88
2022/11/26 14:06:28;;;;;;;7.75;1.98;;;;;;;;;;5021319;28;20758;-89
2022/11/26 14:08:53;;;;;;;16.15;2.75;;;;;;;;;;5027070;28;20128;-88
2022/11/26 14:11:44;;;;;;;10.85;2.47;;;;;;;;;;5021143;28;20125;-89
2022/11/26 14:14:42;;;;;;;6.38;2.63;;;;;;;;;;5023773;28;20043;-88
2022/11/26 14:17:07;;;;;;;8.75;2.70;;;;;;;;;;5018429;28;20116;-88
2022/11/26 14:19:39;;;;;;;15.35;2.47;;;;;;;;;;5027318;28;20125;-87
2022/11/26 14:22:05;;;;;;;7.82;2.80;;;;;;;;;;5026773;28;20042;-87
2022/11/26 14:25:04;;;;;;;13.85;3.10;;;;;;;;;;5026590;28;20141;-87
2022/11/26 14:27:35;;;;;;;6.90;2.40;;;;;;;;;;5008706;28;20421;-87
2022/11/26 14:30:06;;;;;;;9.85;2.80;;;;;;;;;;5015067;28;20480;-86
2022/11/26 14:32:39;;;;;;;10.93;3.25;;;;;;;;;;5022133;28;20941;-88
2022/11/26 14:35:24;;;;;;;12.55;3.65;;;;;;;;;;5024976;28;20040;-89
2022/11/26 14:37:55;;;;;;;13.63;3.97;;;;;;;;;;5025927;28;20053;-86
2022/11/26 14:40:30;;;;;;;14.50;2.88;;;;;;;;;;5025460;28;20129;-85
2022/11/26 14:43:18;;;;;;;12.20;3.58;;;;;;;;;;5006347;28;20065;-79
2022/11/26 14:45:57;;;;;;;10.60;3.55;;;;;;;;;;5011450;28;20065;-86
2022/11/26 14:48:27;;;;;;;6.60;3.35;;;;;;;;;;5023797;28;20037;-85
2022/11/26 14:50:55;;;;;;;5.47;2.67;;;;;;;;;;5023935;28;20037;-84
2022/11/26 14:53:24;;;;;;;11.52;3.90;;;;;;;;;;5022034;28;20637;-86
2022/11/26 14:55:50;;;;;;;8.23;3.08;;;;;;;;;;5023860;28;20048;-82
2022/11/26 14:58:19;;;;;;;12.85;4.07;;;;;;;;;;5012008;28;20076;-87